createdAt,value
2022-12-19T00:01:38.901Z,23.50
2022-12-19T00:04:12.192Z,21.02
2022-12-19T00:06:40.900Z,22.38
2022-12-19T00:09:12.525Z,21.35
2022-12-19T00:11:40.691Z,21.85
2022-12-19T00:14:09.295Z,21.83
2022-12-19T00:16:36.477Z,20.98
2022-12-19T00:19:03.701Z,20.25
2022-12-19T00:21:34.908Z,19.85
2022-12-19T00:24:10.491Z,21.30
2022-12-19T00:26:47.978Z,21.45
2022-12-19T00:29:14.898Z,20.27
2022-12-19T00:31:41.903Z,19.13
2022-12-19T00:34:09.907Z,20.17
2022-12-19T00:36:36.885Z,18.88
2022-12-19T00:39:08.201Z,19.20
2022-12-19T00:41:41.647Z,19.65
2022-12-19T00:44:15.414Z,19.67
2022-12-19T00:46:43.036Z,19.40
2022-12-19T00:49:13.817Z,19.83
2022-12-19T00:51:40.684Z,18.35
2022-12-19T00:54:10.768Z,19.63
2022-12-19T00:56:38.919Z,18.90
2022-12-19T00:59:09.152Z,19.20
2022-12-19T01:01:39.531Z,18.73
2022-12-19T01:06:56.669Z,18.67
2022-12-19T01:09:26.492Z,19.23
2022-12-19T01:12:11.957Z,19.25
2022-12-19T01:14:38.860Z,19.50
2022-12-19T01:17:07.807Z,20.33
2022-12-19T01:19:38.977Z,19.85
2022-12-19T01:22:09.245Z,17.67
2022-12-19T01:24:36.437Z,20.80
2022-12-19T01:27:03.407Z,20.75
2022-12-19T01:29:30.231Z,21.52
2022-12-19T01:31:58.311Z,20.77
2022-12-19T01:34:25.156Z,21.88
2022-12-19T01:36:52.006Z,21.85
2022-12-19T01:39:18.968Z,21.13
2022-12-19T01:41:45.848Z,20.85
2022-12-19T01:44:12.663Z,20.33
2022-12-19T01:46:51.615Z,21.42
2022-12-19T01:49:25.155Z,20.42
2022-12-19T01:51:56.364Z,20.00
2022-12-19T01:54:32.772Z,20.85
2022-12-19T01:57:01.125Z,20.70
2022-12-19T01:59:59.241Z,21.00
2022-12-19T02:02:31.532Z,19.30
2022-12-19T02:04:58.790Z,19.77
2022-12-19T02:07:26.592Z,20.48
2022-12-19T02:09:57.279Z,19.60
2022-12-19T02:12:35.215Z,20.60
2022-12-19T02:15:03.535Z,21.45
2022-12-19T02:17:38.454Z,20.27
2022-12-19T02:20:33.390Z,20.50
2022-12-19T02:23:28.647Z,20.15
2022-12-19T02:26:14.429Z,20.63
2022-12-19T02:28:50.301Z,21.73
2022-12-19T02:31:23.952Z,20.63
2022-12-19T02:34:21.535Z,20.80
2022-12-19T02:37:05.716Z,20.67
2022-12-19T02:39:50.980Z,20.20
2022-12-19T02:42:32.099Z,20.88
2022-12-19T02:45:03.679Z,21.50
2022-12-19T02:47:33.073Z,20.77
2022-12-19T02:50:02.862Z,19.95
2022-12-19T02:52:30.212Z,20.70
2022-12-19T02:55:05.042Z,20.52
2022-12-19T02:57:37.971Z,20.88
2022-12-19T03:00:08.607Z,20.90
2022-12-19T03:03:21.017Z,21.73
2022-12-19T03:06:12.071Z,21.60
2022-12-19T03:08:53.997Z,21.05
2022-12-19T03:11:22.816Z,21.60
2022-12-19T03:14:11.312Z,21.95
2022-12-19T03:16:38.732Z,22.33
2022-12-19T03:19:10.135Z,21.80
2022-12-19T03:21:40.992Z,22.45
2022-12-19T03:24:10.802Z,20.98
2022-12-19T03:26:46.127Z,21.65
2022-12-19T03:29:25.432Z,20.40
2022-12-19T03:31:52.944Z,19.30
2022-12-19T03:34:31.495Z,20.02
2022-12-19T03:37:03.426Z,19.65
2022-12-19T03:39:32.645Z,18.50
2022-12-19T03:42:19.897Z,17.73
2022-12-19T03:44:49.481Z,16.73
2022-12-19T03:47:29.250Z,16.50
2022-12-19T03:49:56.242Z,16.77
2022-12-19T03:52:48.291Z,15.75
2022-12-19T03:55:24.355Z,16.33
2022-12-19T03:57:58.828Z,16.35
2022-12-19T04:00:26.957Z,16.37
2022-12-19T04:02:56.986Z,17.48
2022-12-19T04:05:26.320Z,16.95
2022-12-19T04:08:00.937Z,15.32
2022-12-19T04:10:29.082Z,15.27
2022-12-19T04:13:13.114Z,15.43
2022-12-19T04:15:51.577Z,16.20
2022-12-19T04:18:20.082Z,14.50
2022-12-19T04:20:58.810Z,14.70
2022-12-19T04:23:32.892Z,14.68
2022-12-19T04:26:03.573Z,13.73
2022-12-19T04:29:03.989Z,13.77
2022-12-19T04:31:31.369Z,25.98
2022-12-19T04:33:58.367Z,11.13
2022-12-19T04:36:26.556Z,14.38
2022-12-19T04:38:53.823Z,14.35
2022-12-19T04:41:20.722Z,14.35
2022-12-19T04:43:47.539Z,12.32
2022-12-19T04:46:14.519Z,11.52
2022-12-19T04:48:41.370Z,14.75
2022-12-19T04:51:08.431Z,12.52
2022-12-19T04:53:35.655Z,13.32
2022-12-19T04:56:05.098Z,13.38
2022-12-19T04:58:32.639Z,13.02
2022-12-19T05:01:07.583Z,12.43
2022-12-19T05:03:35.699Z,12.73
2022-12-19T05:06:07.984Z,12.60
2022-12-19T05:08:36.517Z,12.23
2022-12-19T05:11:04.404Z,12.18
2022-12-19T05:13:31.656Z,11.98
2022-12-19T05:16:07.781Z,10.98
2022-12-19T05:18:35.903Z,11.15
2022-12-19T05:21:03.854Z,11.40
2022-12-19T05:23:30.805Z,10.57
2022-12-19T05:25:58.942Z,10.45
2022-12-19T05:28:26.057Z,10.25
2022-12-19T05:30:52.897Z,9.70
2022-12-19T05:33:19.795Z,9.50
2022-12-19T05:35:48.188Z,10.55
2022-12-19T05:38:15.037Z,9.65
2022-12-19T05:40:42.123Z,9.95
2022-12-19T05:43:08.987Z,9.52
2022-12-19T05:45:35.792Z,8.80
2022-12-19T05:48:03.303Z,9.73
2022-12-19T05:50:30.091Z,8.80
2022-12-19T05:53:08.882Z,9.15
2022-12-19T05:55:35.802Z,8.95
2022-12-19T05:58:02.602Z,9.88
2022-12-19T06:00:30.930Z,9.75
2022-12-19T06:02:57.857Z,8.20
2022-12-19T06:05:24.908Z,8.88
2022-12-19T06:07:51.870Z,8.88
2022-12-19T06:10:18.845Z,8.68
2022-12-19T06:12:45.690Z,9.48
2022-12-19T06:15:12.715Z,9.43
2022-12-19T06:17:39.595Z,8.60
2022-12-19T06:20:07.134Z,8.90
2022-12-19T06:22:35.093Z,8.30
2022-12-19T06:25:02.125Z,8.32
2022-12-19T06:27:28.963Z,8.80
2022-12-19T06:29:55.869Z,8.07
2022-12-19T06:32:22.678Z,8.57
2022-12-19T06:35:04.181Z,9.05
2022-12-19T06:37:31.645Z,9.27
2022-12-19T06:39:58.491Z,8.82
2022-12-19T06:42:25.604Z,9.00
2022-12-19T06:44:55.579Z,8.45
2022-12-19T06:47:24.161Z,8.13
2022-12-19T06:49:51.057Z,7.97
2022-12-19T06:52:18.269Z,9.02
2022-12-19T06:54:45.143Z,8.27
2022-12-19T06:57:12.037Z,8.10
2022-12-19T06:59:38.888Z,8.50
2022-12-19T07:02:14.874Z,8.43
2022-12-19T07:04:56.351Z,7.95
2022-12-19T07:07:23.331Z,7.80
2022-12-19T07:09:50.146Z,8.00
2022-12-19T07:12:17.033Z,8.00
2022-12-19T07:14:46.722Z,8.15
2022-12-19T07:17:16.359Z,7.80
2022-12-19T07:19:43.269Z,8.20
2022-12-19T07:22:10.429Z,8.00
2022-12-19T07:24:37.796Z,8.02
2022-12-19T07:27:08.447Z,8.45
2022-12-19T07:29:35.348Z,7.20
2022-12-19T07:32:02.251Z,7.20
2022-12-19T07:34:30.072Z,7.45
2022-12-19T07:36:56.932Z,7.40
2022-12-19T07:39:24.089Z,7.22
2022-12-19T07:41:50.901Z,8.23
2022-12-19T07:44:29.614Z,7.47
2022-12-19T07:46:56.651Z,7.75
2022-12-19T07:49:23.536Z,6.60
2022-12-19T07:51:50.484Z,7.22
2022-12-19T07:54:17.320Z,7.78
2022-12-19T07:56:44.233Z,7.25
2022-12-19T07:59:13.234Z,7.30
2022-12-19T08:01:40.218Z,7.10
2022-12-19T08:04:07.130Z,7.07
2022-12-19T08:06:39.127Z,6.90
2022-12-19T08:09:07.865Z,7.20
2022-12-19T08:11:34.939Z,7.03
2022-12-19T08:14:01.869Z,7.43
2022-12-19T08:16:29.139Z,7.38
2022-12-19T08:18:56.137Z,7.40
2022-12-19T08:21:24.171Z,6.72
2022-12-19T08:23:52.090Z,7.15
2022-12-19T08:26:25.035Z,6.72
2022-12-19T08:28:57.763Z,7.05
2022-12-19T08:31:26.925Z,7.07
2022-12-19T08:33:55.716Z,6.20
2022-12-19T08:36:23.441Z,6.43
2022-12-19T08:38:50.928Z,7.63
2022-12-19T08:41:17.876Z,6.72
2022-12-19T08:43:52.749Z,6.90
2022-12-19T08:46:20.402Z,6.97
2022-12-19T08:48:47.354Z,6.07
2022-12-19T08:51:15.310Z,6.30
2022-12-19T08:53:43.991Z,6.38
2022-12-19T08:56:20.348Z,6.47
2022-12-19T08:58:47.733Z,6.07
2022-12-19T09:01:19.143Z,5.97
2022-12-19T09:04:24.486Z,5.57
2022-12-19T09:06:34.783Z,6.15
2022-12-19T09:09:03.159Z,5.70
2022-12-19T09:11:30.211Z,5.60
2022-12-19T09:13:58.126Z,5.85
2022-12-19T09:16:27.432Z,5.85
2022-12-19T09:18:56.994Z,5.88
2022-12-19T09:21:25.191Z,5.43
2022-12-19T09:23:54.869Z,6.15
2022-12-19T09:26:23.469Z,5.15
2022-12-19T09:28:51.325Z,5.13
2022-12-19T09:31:21.122Z,5.45
2022-12-19T09:33:48.448Z,5.38
2022-12-19T09:36:17.985Z,5.22
2022-12-19T09:38:45.253Z,5.20
2022-12-19T09:41:51.624Z,5.35
2022-12-19T09:44:50.867Z,5.72
2022-12-19T09:47:23.994Z,5.68
2022-12-19T09:49:54.191Z,5.20
2022-12-19T09:52:42.985Z,5.28
2022-12-19T09:55:18.803Z,5.00
2022-12-19T09:58:04.731Z,5.88
2022-12-19T10:00:59.814Z,5.35
2022-12-19T10:03:47.251Z,5.68
2022-12-19T10:07:12.891Z,6.57
2022-12-19T10:12:39.795Z,6.43
2022-12-19T10:15:39.868Z,6.43
2022-12-19T10:18:31.019Z,6.45
2022-12-19T10:21:11.586Z,6.68
2022-12-19T10:24:17.217Z,6.78
2022-12-19T10:26:49.225Z,7.43
2022-12-19T10:29:38.894Z,6.60
2022-12-19T10:32:13.497Z,7.30
2022-12-19T10:34:43.771Z,7.40
2022-12-19T10:37:36.768Z,7.22
2022-12-19T10:40:30.873Z,7.00
2022-12-19T10:43:07.536Z,7.82
2022-12-19T10:45:49.687Z,7.30
2022-12-19T10:48:22.508Z,7.05
2022-12-19T10:50:57.352Z,7.35
2022-12-19T10:53:29.916Z,7.68
2022-12-19T10:56:13.105Z,7.55
2022-12-19T10:58:43.838Z,7.60
2022-12-19T11:01:33.418Z,7.93
2022-12-19T11:04:33.477Z,8.95
2022-12-19T11:07:03.664Z,9.25
2022-12-19T11:09:30.650Z,7.65
2022-12-19T11:15:49.474Z,7.13
2022-12-19T11:20:00.670Z,8.63
2022-12-19T11:28:40.415Z,7.60
2022-12-19T11:29:27.748Z,8.23
2022-12-19T11:30:42.985Z,8.20
2022-12-19T11:30:49.022Z,8.10
2022-12-19T11:32:43.098Z,7.30
2022-12-19T11:35:25.128Z,6.97
2022-12-19T11:37:58.347Z,7.53
2022-12-19T11:40:44.876Z,6.32
2022-12-19T11:43:49.546Z,6.28
2022-12-19T11:46:54.823Z,6.93
2022-12-19T11:49:53.624Z,6.63
2022-12-19T11:55:53.660Z,6.95
2022-12-19T11:58:23.877Z,6.80
2022-12-19T12:01:20.356Z,6.97
2022-12-19T12:04:17.154Z,6.50
2022-12-19T12:06:56.002Z,6.13
2022-12-19T12:12:36.802Z,6.45
2022-12-19T12:18:03.661Z,6.28
2022-12-19T12:23:26.008Z,6.30
2022-12-19T12:31:19.169Z,6.38
2022-12-19T12:31:31.195Z,7.03
2022-12-19T12:31:55.172Z,5.90
2022-12-19T12:31:55.329Z,7.10
2022-12-19T12:35:54.428Z,5.38
2022-12-19T12:38:13.723Z,5.28
2022-12-19T12:39:45.729Z,6.13
2022-12-19T12:42:15.581Z,5.78
2022-12-19T12:44:45.959Z,6.18
2022-12-19T12:47:24.681Z,5.50
2022-12-19T12:50:03.963Z,6.40
2022-12-19T12:52:36.100Z,6.63
2022-12-19T12:55:06.136Z,6.13
2022-12-19T12:57:36.405Z,5.38
2022-12-19T13:00:23.336Z,5.45
2022-12-19T13:03:15.877Z,5.57
2022-12-19T13:05:49.086Z,5.40
2022-12-19T13:08:32.926Z,5.55
2022-12-19T13:11:03.364Z,5.22
2022-12-19T13:13:52.883Z,5.32
2022-12-19T13:16:44.922Z,6.20
2022-12-19T13:19:28.822Z,5.18
2022-12-19T13:22:05.242Z,5.53
2022-12-19T13:24:47.271Z,5.40
2022-12-19T13:27:33.012Z,5.72
2022-12-19T13:29:59.989Z,5.13
2022-12-19T13:32:47.050Z,5.00
2022-12-19T13:36:15.429Z,5.45
2022-12-19T13:39:57.596Z,5.47
2022-12-19T13:41:27.318Z,5.45
2022-12-19T13:43:59.673Z,5.00
2022-12-19T13:46:36.517Z,5.15
2022-12-19T13:49:08.251Z,4.97
2022-12-19T13:51:45.429Z,5.00
2022-12-19T13:54:29.152Z,5.32
2022-12-19T13:57:00.626Z,5.03
2022-12-19T13:59:38.967Z,5.30
2022-12-19T14:02:11.097Z,4.80
2022-12-19T14:04:41.123Z,5.15
2022-12-19T14:07:40.199Z,5.25
2022-12-19T14:11:37.225Z,4.97
2022-12-19T14:13:47.452Z,4.85
2022-12-19T14:16:18.513Z,4.90
2022-12-19T14:18:50.384Z,5.38
2022-12-19T14:22:04.927Z,5.47
2022-12-19T14:24:15.354Z,4.70
2022-12-19T14:28:25.853Z,4.97
2022-12-19T14:30:29.270Z,5.53
2022-12-19T14:33:46.020Z,4.88
2022-12-19T14:36:05.174Z,6.00
2022-12-19T14:39:20.965Z,7.93
2022-12-19T14:41:08.012Z,10.05
2022-12-19T14:43:56.454Z,7.13
2022-12-19T14:54:08.025Z,6.25
2022-12-19T14:54:15.600Z,5.90
2022-12-19T14:54:55.201Z,5.28
2022-12-19T14:56:04.285Z,7.57
2022-12-19T14:58:52.097Z,4.45
2022-12-19T15:01:26.497Z,4.75
2022-12-19T15:04:51.140Z,5.75
2022-12-19T15:07:07.751Z,4.82
2022-12-19T15:10:58.913Z,4.97
2022-12-19T15:14:48.424Z,4.90
2022-12-19T15:16:34.842Z,5.15
2022-12-19T15:19:05.513Z,4.90
2022-12-19T15:21:32.428Z,5.53
2022-12-19T15:23:59.264Z,5.40
2022-12-19T15:26:34.458Z,4.95
2022-12-19T15:29:02.517Z,5.68
2022-12-19T15:31:49.759Z,5.25
2022-12-19T15:34:50.173Z,5.30
2022-12-19T15:37:16.865Z,6.33
2022-12-19T15:39:45.252Z,5.80
2022-12-19T15:42:31.312Z,5.90
2022-12-19T15:45:00.164Z,6.15
2022-12-19T15:47:37.302Z,6.15
2022-12-19T15:50:16.708Z,5.82
2022-12-19T15:52:43.887Z,5.68
2022-12-19T15:55:15.601Z,6.30
2022-12-19T15:57:47.965Z,6.07
2022-12-19T16:00:20.199Z,6.00
2022-12-19T16:05:34.859Z,5.72
2022-12-19T16:08:01.771Z,5.65
2022-12-19T16:10:29.805Z,6.10
2022-12-19T16:12:58.035Z,6.40
2022-12-19T16:15:26.707Z,6.13
2022-12-19T16:17:54.454Z,5.60
2022-12-19T16:20:28.286Z,6.55
2022-12-19T16:22:55.526Z,6.28
2022-12-19T16:25:26.604Z,5.93
2022-12-19T16:27:58.105Z,6.25
2022-12-19T16:30:33.668Z,6.97
2022-12-19T16:33:00.936Z,5.50
2022-12-19T16:36:02.447Z,5.63
2022-12-19T16:38:17.788Z,16.33
2022-12-19T16:40:45.316Z,6.45
2022-12-19T16:43:19.898Z,5.93
2022-12-19T16:45:46.946Z,5.73
2022-12-19T16:48:22.849Z,5.55
2022-12-19T16:50:50.157Z,5.20
2022-12-19T16:53:17.912Z,5.43
2022-12-19T16:55:46.184Z,5.85
2022-12-19T16:58:22.108Z,5.72
2022-12-19T17:00:51.186Z,5.93
2022-12-19T17:03:29.294Z,4.97
2022-12-19T17:05:56.569Z,5.50
2022-12-19T17:08:23.863Z,6.07
2022-12-19T17:10:50.967Z,6.35
2022-12-19T17:13:18.249Z,5.65
2022-12-19T17:15:49.676Z,9.85
2022-12-19T17:18:33.140Z,6.95
2022-12-19T17:21:00.323Z,8.18
2022-12-19T17:23:30.057Z,5.97
2022-12-19T17:25:57.937Z,6.18
2022-12-19T17:28:25.018Z,6.03
2022-12-19T17:30:54.886Z,6.22
2022-12-19T17:33:23.836Z,5.90
2022-12-19T17:35:50.780Z,6.40
2022-12-19T17:38:17.875Z,6.28
2022-12-19T17:40:45.319Z,5.88
2022-12-19T17:43:12.878Z,6.05
2022-12-19T17:45:41.066Z,5.60
2022-12-19T17:48:26.377Z,5.72
2022-12-19T17:50:54.284Z,5.65
2022-12-19T17:53:21.572Z,5.68
2022-12-19T17:55:48.461Z,5.63
2022-12-19T17:58:15.451Z,6.10
2022-12-19T18:00:43.207Z,6.25
2022-12-19T18:03:26.299Z,6.88
2022-12-19T18:05:54.648Z,6.15
2022-12-19T18:08:31.419Z,6.50
2022-12-19T18:11:00.846Z,6.10
2022-12-19T18:13:29.532Z,6.07
2022-12-19T18:15:59.406Z,5.45
2022-12-19T18:18:35.193Z,6.35
2022-12-19T18:21:02.723Z,6.10
2022-12-19T18:23:33.371Z,6.00
2022-12-19T18:26:02.330Z,6.10
2022-12-19T18:28:30.148Z,5.28
2022-12-19T18:31:06.052Z,6.45
2022-12-19T18:33:39.718Z,6.55
2022-12-19T18:36:07.861Z,6.75
2022-12-19T18:38:34.849Z,6.55
2022-12-19T18:41:01.882Z,6.65
2022-12-19T18:43:31.074Z,6.55
2022-12-19T18:45:58.167Z,6.32
2022-12-19T18:48:29.079Z,6.43
2022-12-19T18:50:57.757Z,7.25
2022-12-19T18:53:35.155Z,6.20
2022-12-19T18:56:05.192Z,7.32
2022-12-19T18:58:32.912Z,7.15
2022-12-19T19:01:01.438Z,7.40
2022-12-19T19:03:31.618Z,6.90
2022-12-19T19:05:59.124Z,6.65
2022-12-19T19:08:28.462Z,6.78
2022-12-19T19:11:07.280Z,6.25
2022-12-19T19:13:34.186Z,6.35
2022-12-19T19:16:05.375Z,6.60
2022-12-19T19:18:37.761Z,6.45
2022-12-19T19:21:07.053Z,6.15
2022-12-19T19:23:38.285Z,6.68
2022-12-19T19:26:05.793Z,6.15
2022-12-19T19:28:32.667Z,6.40
2022-12-19T19:31:01.241Z,6.93
2022-12-19T19:33:35.852Z,6.35
2022-12-19T19:36:11.759Z,6.43
2022-12-19T19:38:42.644Z,6.40
2022-12-19T19:41:09.593Z,6.10
2022-12-19T19:43:36.479Z,6.07
2022-12-19T19:46:03.436Z,5.63
2022-12-19T19:48:30.678Z,5.18
2022-12-19T19:50:57.741Z,5.35
2022-12-19T19:53:24.883Z,5.10
2022-12-19T19:55:56.779Z,5.30
2022-12-19T19:58:23.951Z,5.10
2022-12-19T20:00:50.873Z,5.53
2022-12-19T20:03:22.479Z,5.35
2022-12-19T20:05:50.649Z,6.22
2022-12-19T20:08:17.469Z,5.35
2022-12-19T20:10:44.443Z,6.28
2022-12-19T20:13:11.352Z,5.70
2022-12-19T20:15:41.806Z,4.85
2022-12-19T20:18:13.284Z,5.80
2022-12-19T20:20:40.182Z,4.78
2022-12-19T20:23:07.117Z,5.72
2022-12-19T20:25:35.727Z,4.90
2022-12-19T20:28:03.116Z,5.10
2022-12-19T20:30:29.925Z,5.78
2022-12-19T20:32:57.221Z,5.55
2022-12-19T20:35:24.058Z,5.32
2022-12-19T20:37:50.945Z,5.40
2022-12-19T20:40:17.799Z,5.28
2022-12-19T20:42:44.729Z,5.07
2022-12-19T20:45:11.604Z,5.45
2022-12-19T20:47:38.624Z,5.55
2022-12-19T20:50:07.483Z,4.93
2022-12-19T20:52:34.459Z,5.80
2022-12-19T20:55:01.347Z,5.20
2022-12-19T20:57:30.482Z,5.78
2022-12-19T20:59:57.365Z,5.47
2022-12-19T21:02:24.384Z,5.28
2022-12-19T21:04:51.397Z,5.60
2022-12-19T21:07:18.529Z,5.85
2022-12-19T21:09:45.529Z,5.78
2022-12-19T21:12:12.875Z,5.20
2022-12-19T21:14:39.704Z,5.75
2022-12-19T21:17:06.825Z,5.25
2022-12-19T21:19:33.646Z,5.03
2022-12-19T21:22:00.555Z,5.60
2022-12-19T21:24:29.238Z,5.30
2022-12-19T21:26:58.249Z,5.32
2022-12-19T21:29:25.431Z,5.05
2022-12-19T21:31:52.370Z,5.10
2022-12-19T21:34:19.273Z,5.93
2022-12-19T21:36:46.251Z,5.32
2022-12-19T21:39:13.178Z,4.55
2022-12-19T21:41:40.067Z,5.50
2022-12-19T21:44:06.993Z,5.22
2022-12-19T21:46:34.248Z,4.57
2022-12-19T21:49:03.039Z,4.75
2022-12-19T21:51:31.444Z,4.95
2022-12-19T21:54:01.446Z,5.00
2022-12-19T21:56:36.377Z,4.97
2022-12-19T21:59:06.563Z,5.43
2022-12-19T22:01:34.395Z,4.38
2022-12-19T22:04:06.731Z,4.97
2022-12-19T22:06:35.502Z,4.80
2022-12-19T22:09:03.840Z,5.35
2022-12-19T22:11:31.382Z,4.40
2022-12-19T22:14:02.037Z,4.85
2022-12-19T22:16:29.616Z,4.55
2022-12-19T22:18:57.039Z,4.82
2022-12-19T22:21:25.489Z,4.88
2022-12-19T22:23:52.679Z,5.25
2022-12-19T22:26:22.268Z,4.70
2022-12-19T22:28:51.599Z,4.75
2022-12-19T22:31:23.149Z,5.50
2022-12-19T22:33:53.178Z,5.65
2022-12-19T22:36:27.630Z,4.72
2022-12-19T22:38:56.328Z,4.47
2022-12-19T22:41:23.298Z,4.53
2022-12-19T22:43:51.428Z,4.68
2022-12-19T22:46:18.481Z,4.53
2022-12-19T22:48:47.106Z,4.28
2022-12-19T22:51:14.908Z,4.57
2022-12-19T22:53:42.384Z,4.15
2022-12-19T22:56:13.654Z,4.90
2022-12-19T22:58:43.453Z,4.35
2022-12-19T23:01:25.344Z,4.07
2022-12-19T23:03:54.422Z,5.18
2022-12-19T23:06:23.049Z,4.50
2022-12-19T23:08:50.205Z,4.95
2022-12-19T23:11:20.540Z,4.55
2022-12-19T23:13:48.856Z,3.80
2022-12-19T23:16:16.385Z,4.65
2022-12-19T23:18:43.679Z,4.43
2022-12-19T23:21:17.987Z,4.90
2022-12-19T23:23:47.858Z,4.18
2022-12-19T23:26:18.509Z,4.60
2022-12-19T23:28:51.379Z,4.18
2022-12-19T23:31:18.787Z,4.28
2022-12-19T23:33:45.637Z,4.63
2022-12-19T23:36:12.773Z,3.75
2022-12-19T23:38:40.612Z,4.72
2022-12-19T23:41:10.920Z,4.20
2022-12-19T23:43:38.632Z,4.35
2022-12-19T23:46:12.713Z,4.30
2022-12-19T23:48:40.299Z,4.70
2022-12-19T23:51:10.515Z,4.60
2022-12-19T23:53:37.458Z,4.40
2022-12-19T23:56:10.009Z,4.00
2022-12-19T23:58:36.924Z,3.63
